createdAt,value
2023-03-07T00:02:13.444Z,38.78
2023-03-07T00:04:46.046Z,33.25
2023-03-07T00:07:14.186Z,33.97
2023-03-07T00:09:42.345Z,37.17
2023-03-07T00:12:11.328Z,34.22
2023-03-07T00:14:39.390Z,32.35
2023-03-07T00:17:07.416Z,33.08
2023-03-07T00:19:35.256Z,31.42
2023-03-07T00:22:05.286Z,32.40
2023-03-07T00:24:33.268Z,35.63
2023-03-07T00:27:01.100Z,35.00
2023-03-07T00:29:29.461Z,30.80
2023-03-07T00:31:57.279Z,36.38
2023-03-07T00:34:25.104Z,34.55
2023-03-07T00:36:54.066Z,35.83
2023-03-07T00:39:23.680Z,33.60
2023-03-07T00:41:51.519Z,34.67
2023-03-07T00:44:19.324Z,34.60
2023-03-07T00:46:47.156Z,36.97
2023-03-07T00:49:15.087Z,29.80
2023-03-07T00:51:43.439Z,34.70
2023-03-07T00:54:11.342Z,32.35
2023-03-07T00:56:40.546Z,33.60
2023-03-07T00:59:08.525Z,34.70
2023-03-07T01:01:36.981Z,34.47
2023-03-07T01:04:05.376Z,36.72
2023-03-07T01:06:34.525Z,34.45
2023-03-07T01:09:05.362Z,31.33
2023-03-07T01:11:35.182Z,33.13
2023-03-07T01:14:06.816Z,32.80
2023-03-07T01:16:38.865Z,34.40
2023-03-07T01:21:37.700Z,32.83
2023-03-07T01:24:05.854Z,32.95
2023-03-07T01:26:35.443Z,32.30
2023-03-07T01:29:07.068Z,28.20
2023-03-07T01:31:37.198Z,25.10
2023-03-07T01:34:06.594Z,26.55
2023-03-07T01:36:38.421Z,27.05
2023-03-07T01:39:10.402Z,24.30
2023-03-07T01:41:41.633Z,30.27
2023-03-07T01:44:17.281Z,24.77
2023-03-07T01:46:48.744Z,21.35
2023-03-07T01:49:25.377Z,21.35
2023-03-07T01:52:04.184Z,24.33
2023-03-07T01:54:35.827Z,20.77
2023-03-07T01:57:04.622Z,19.50
2023-03-07T01:59:37.755Z,21.17
2023-03-07T02:02:11.931Z,19.92
2023-03-07T02:04:45.338Z,20.40
2023-03-07T02:07:14.851Z,19.27
2023-03-07T02:09:47.424Z,19.27
2023-03-07T02:12:16.523Z,19.48
2023-03-07T02:14:48.397Z,18.35
2023-03-07T02:17:16.580Z,18.65
2023-03-07T02:19:54.604Z,18.08
2023-03-07T02:22:22.535Z,16.73
2023-03-07T02:24:54.396Z,17.02
2023-03-07T02:27:25.415Z,17.00
2023-03-07T02:29:53.727Z,17.30
2023-03-07T02:32:22.361Z,15.25
2023-03-07T02:34:50.266Z,14.65
2023-03-07T02:37:26.096Z,15.65
2023-03-07T02:39:55.948Z,13.60
2023-03-07T02:42:29.647Z,14.32
2023-03-07T02:45:10.046Z,13.73
2023-03-07T02:47:39.474Z,12.98
2023-03-07T02:50:08.470Z,12.95
2023-03-07T02:52:39.596Z,11.27
2023-03-07T02:55:09.161Z,12.93
2023-03-07T02:57:41.991Z,11.00
2023-03-07T03:00:12.379Z,10.88
2023-03-07T03:02:40.217Z,10.57
2023-03-07T03:05:09.040Z,10.85
2023-03-07T03:07:36.903Z,10.52
2023-03-07T03:10:05.459Z,9.63
2023-03-07T03:12:34.268Z,9.55
2023-03-07T03:15:04.385Z,10.95
2023-03-07T03:17:34.072Z,9.20
2023-03-07T03:20:01.854Z,10.20
2023-03-07T03:22:30.966Z,10.73
2023-03-07T03:24:58.953Z,11.30
2023-03-07T03:27:26.840Z,10.25
2023-03-07T03:29:55.348Z,10.85
2023-03-07T03:32:25.239Z,12.77
2023-03-07T03:34:53.200Z,12.02
2023-03-07T03:37:21.232Z,12.63
2023-03-07T03:39:49.343Z,13.77
2023-03-07T03:42:17.175Z,12.60
2023-03-07T03:44:45.352Z,13.27
2023-03-07T03:47:13.320Z,13.77
2023-03-07T03:49:42.685Z,12.73
2023-03-07T03:52:11.120Z,13.85
2023-03-07T03:54:38.880Z,13.32
2023-03-07T03:57:07.742Z,15.15
2023-03-07T03:59:35.570Z,13.57
2023-03-07T04:02:03.690Z,13.50
2023-03-07T04:04:31.571Z,14.38
2023-03-07T04:07:01.130Z,12.85
2023-03-07T04:09:29.308Z,13.23
2023-03-07T04:11:57.133Z,13.38
2023-03-07T04:14:25.436Z,14.80
2023-03-07T04:16:53.509Z,13.13
2023-03-07T04:19:22.130Z,13.77
2023-03-07T04:21:50.364Z,14.77
2023-03-07T04:24:19.866Z,13.50
2023-03-07T04:26:48.167Z,14.75
2023-03-07T04:29:16.612Z,14.40
2023-03-07T04:31:51.712Z,14.90
2023-03-07T04:34:19.722Z,14.07
2023-03-07T04:36:47.570Z,14.05
2023-03-07T04:39:15.638Z,12.70
2023-03-07T04:41:45.326Z,13.52
2023-03-07T04:44:18.256Z,12.35
2023-03-07T04:46:46.125Z,11.77
2023-03-07T04:49:14.176Z,12.23
2023-03-07T04:51:44.118Z,12.90
2023-03-07T04:54:13.637Z,12.73
2023-03-07T04:56:42.412Z,13.30
2023-03-07T04:59:13.635Z,13.05
2023-03-07T05:01:42.392Z,13.23
2023-03-07T05:04:10.340Z,15.15
2023-03-07T05:06:39.717Z,15.50
2023-03-07T05:09:08.691Z,14.98
2023-03-07T05:11:36.762Z,16.02
2023-03-07T05:14:05.246Z,14.73
2023-03-07T05:16:35.423Z,15.77
2023-03-07T05:19:05.981Z,14.73
2023-03-07T05:21:34.209Z,15.75
2023-03-07T05:24:02.532Z,15.05
2023-03-07T05:26:31.926Z,15.38
2023-03-07T05:29:00.061Z,14.07
2023-03-07T05:31:28.186Z,13.05
2023-03-07T05:33:57.574Z,14.85
2023-03-07T05:36:25.564Z,14.00
2023-03-07T05:38:56.279Z,13.32
2023-03-07T05:41:24.832Z,13.32
2023-03-07T05:43:52.616Z,12.43
2023-03-07T05:46:20.817Z,11.57
2023-03-07T05:48:48.738Z,10.05
2023-03-07T05:51:18.056Z,10.40
2023-03-07T05:53:46.489Z,10.60
2023-03-07T05:56:15.016Z,9.57
2023-03-07T05:58:43.537Z,8.93
2023-03-07T06:01:12.324Z,7.72
2023-03-07T06:03:40.921Z,8.77
2023-03-07T06:06:09.290Z,9.55
2023-03-07T06:08:38.512Z,8.07
2023-03-07T06:11:07.057Z,7.78
2023-03-07T06:13:38.293Z,6.72
2023-03-07T06:16:07.199Z,6.80
2023-03-07T06:18:35.860Z,7.00
2023-03-07T06:21:05.844Z,7.05
2023-03-07T06:23:40.027Z,8.40
2023-03-07T06:26:13.073Z,7.03
2023-03-07T06:28:43.033Z,6.82
2023-03-07T06:31:15.118Z,7.78
2023-03-07T06:33:43.628Z,7.57
2023-03-07T06:36:15.662Z,7.15
2023-03-07T06:38:48.079Z,7.53
2023-03-07T06:41:15.925Z,6.95
2023-03-07T06:43:44.066Z,7.50
2023-03-07T06:46:12.490Z,5.80
2023-03-07T06:48:43.895Z,5.97
2023-03-07T06:51:16.243Z,5.60
2023-03-07T06:53:47.285Z,6.93
2023-03-07T06:56:15.338Z,7.80
2023-03-07T06:58:44.258Z,6.57
2023-03-07T07:01:18.142Z,6.43
2023-03-07T07:03:48.404Z,6.88
2023-03-07T07:06:16.943Z,6.00
2023-03-07T07:08:44.863Z,6.40
2023-03-07T07:11:14.240Z,5.72
2023-03-07T07:13:43.451Z,7.43
2023-03-07T07:16:12.953Z,4.38
2023-03-07T07:18:41.006Z,4.18
2023-03-07T07:21:09.950Z,4.97
2023-03-07T07:23:38.121Z,4.07
2023-03-07T07:26:06.995Z,4.25
2023-03-07T07:28:38.917Z,4.22
2023-03-07T07:31:09.006Z,3.83
2023-03-07T07:33:38.301Z,3.88
2023-03-07T07:36:08.934Z,4.00
2023-03-07T07:38:37.626Z,4.47
2023-03-07T07:41:05.843Z,3.25
2023-03-07T07:43:34.582Z,4.22
2023-03-07T07:46:13.790Z,5.35
2023-03-07T07:48:42.623Z,5.82
2023-03-07T07:53:39.909Z,3.60
2023-03-07T07:56:08.623Z,4.30
2023-03-07T07:58:36.531Z,4.18
2023-03-07T08:01:15.696Z,4.40
2023-03-07T08:03:43.755Z,4.35
2023-03-07T08:06:11.996Z,3.78
2023-03-07T08:08:40.414Z,3.78
2023-03-07T08:11:08.445Z,3.85
2023-03-07T08:13:36.272Z,3.92
2023-03-07T08:16:10.268Z,3.65
2023-03-07T08:18:39.543Z,3.80
2023-03-07T08:21:08.777Z,3.63
2023-03-07T08:23:37.051Z,4.45
2023-03-07T08:26:06.380Z,2.92
2023-03-07T08:28:34.398Z,3.27
2023-03-07T08:31:07.729Z,3.72
2023-03-07T08:33:35.833Z,3.38
2023-03-07T08:36:06.190Z,3.38
2023-03-07T08:38:34.424Z,3.17
2023-03-07T08:41:03.893Z,2.90
2023-03-07T08:43:33.985Z,2.40
2023-03-07T08:46:02.178Z,2.88
2023-03-07T08:48:30.340Z,2.85
2023-03-07T08:50:58.517Z,2.60
2023-03-07T08:53:27.684Z,2.63
2023-03-07T08:55:55.458Z,2.38
2023-03-07T08:58:23.264Z,3.10
2023-03-07T09:00:51.210Z,2.80
2023-03-07T09:03:19.038Z,3.08
2023-03-07T09:05:46.893Z,2.75
2023-03-07T09:08:14.654Z,2.70
2023-03-07T09:10:43.910Z,2.78
2023-03-07T09:13:12.136Z,4.10
2023-03-07T09:15:40.313Z,4.00
2023-03-07T09:18:08.349Z,3.88
2023-03-07T09:20:36.694Z,3.22
2023-03-07T09:23:04.520Z,3.13
2023-03-07T09:25:32.307Z,3.28
2023-03-07T09:28:01.611Z,3.40
2023-03-07T09:30:29.572Z,3.77
2023-03-07T09:32:57.364Z,3.95
2023-03-07T09:35:26.051Z,3.47
2023-03-07T09:37:54.032Z,3.33
2023-03-07T09:40:25.200Z,3.03
2023-03-07T09:43:02.272Z,3.40
2023-03-07T09:45:48.223Z,3.50
2023-03-07T09:49:04.131Z,3.40
2023-03-07T09:51:38.400Z,2.90
2023-03-07T09:54:11.726Z,2.58
2023-03-07T09:56:44.274Z,4.45
2023-03-07T09:59:23.728Z,3.72
2023-03-07T10:01:59.800Z,2.40
2023-03-07T10:04:34.030Z,2.42
2023-03-07T10:07:05.189Z,2.15
2023-03-07T10:09:33.395Z,2.78
2023-03-07T10:12:27.472Z,2.58
2023-03-07T10:15:10.240Z,3.30
2023-03-07T10:17:57.682Z,2.97
2023-03-07T10:20:36.479Z,2.40
2023-03-07T10:23:25.449Z,2.58
2023-03-07T10:25:57.222Z,1.98
2023-03-07T10:28:29.178Z,2.45
2023-03-07T10:31:00.839Z,4.00
2023-03-07T10:33:31.845Z,2.63
2023-03-07T10:36:07.640Z,2.40
2023-03-07T10:38:41.243Z,1.92
2023-03-07T10:41:14.930Z,2.90
2023-03-07T10:43:44.643Z,2.25
2023-03-07T10:46:24.719Z,1.90
2023-03-07T10:49:03.149Z,1.77
2023-03-07T10:51:47.396Z,3.17
2023-03-07T10:54:20.064Z,11.00
2023-03-07T10:57:09.157Z,4.53
2023-03-07T10:59:38.922Z,4.88
2023-03-07T11:02:29.994Z,3.90
2023-03-07T11:04:59.940Z,2.03
2023-03-07T11:07:30.166Z,2.10
2023-03-07T11:10:00.110Z,2.25
2023-03-07T11:12:31.917Z,1.70
2023-03-07T11:15:11.767Z,1.90
2023-03-07T11:17:43.470Z,1.90
2023-03-07T11:20:24.034Z,1.70
2023-03-07T11:23:08.594Z,1.35
2023-03-07T11:25:37.483Z,1.70
2023-03-07T11:28:05.916Z,1.55
2023-03-07T11:30:43.436Z,1.70
2023-03-07T11:33:18.347Z,1.38
2023-03-07T11:36:05.569Z,1.13
2023-03-07T11:38:42.331Z,1.40
2023-03-07T11:41:14.989Z,1.65
2023-03-07T11:43:52.926Z,1.50
2023-03-07T11:46:33.200Z,1.85
2023-03-07T11:51:49.762Z,1.70
2023-03-07T11:54:27.697Z,1.17
2023-03-07T11:57:00.430Z,1.35
2023-03-07T12:00:00.531Z,1.52
2023-03-07T12:02:48.897Z,2.05
2023-03-07T12:05:27.169Z,1.50
2023-03-07T12:08:17.851Z,2.17
2023-03-07T12:10:57.013Z,1.52
2023-03-07T12:13:37.944Z,1.70
2023-03-07T12:16:19.737Z,4.78
2023-03-07T12:19:12.373Z,1.40
2023-03-07T12:22:07.149Z,2.00
2023-03-07T12:24:40.948Z,1.60
2023-03-07T12:27:16.266Z,2.25
2023-03-07T12:29:50.863Z,2.67
2023-03-07T12:32:24.480Z,2.38
2023-03-07T12:34:56.917Z,1.92
2023-03-07T12:37:29.916Z,3.60
2023-03-07T12:40:04.298Z,1.70
2023-03-07T12:42:38.293Z,1.50
2023-03-07T12:45:12.322Z,1.58
2023-03-07T12:47:56.854Z,2.20
2023-03-07T12:50:30.130Z,1.60
2023-03-07T12:53:04.993Z,1.70
2023-03-07T12:55:39.375Z,1.95
2023-03-07T12:58:13.183Z,2.72
2023-03-07T13:00:46.352Z,2.60
2023-03-07T13:03:22.578Z,2.45
2023-03-07T13:05:51.390Z,2.13
2023-03-07T13:08:24.528Z,2.05
2023-03-07T13:10:54.493Z,2.15
2023-03-07T13:13:55.382Z,1.85
2023-03-07T13:16:38.624Z,3.40
2023-03-07T13:19:44.415Z,2.75
2023-03-07T13:22:49.622Z,1.90
2023-03-07T13:26:00.436Z,1.40
2023-03-07T13:28:44.471Z,2.78
2023-03-07T13:31:40.343Z,1.45
2023-03-07T13:34:52.863Z,1.70
2023-03-07T13:37:57.799Z,3.55
2023-03-07T13:40:48.780Z,3.65
2023-03-07T13:44:06.398Z,3.88
2023-03-07T13:46:58.859Z,2.95
2023-03-07T13:49:46.493Z,1.63
2023-03-07T13:52:45.185Z,3.90
2023-03-07T13:55:24.017Z,2.00
2023-03-07T13:57:52.277Z,1.52
2023-03-07T14:00:28.173Z,3.35
2023-03-07T14:02:57.434Z,1.95
2023-03-07T14:05:25.845Z,2.30
2023-03-07T14:07:54.706Z,3.65
2023-03-07T14:10:28.231Z,3.30
2023-03-07T14:13:14.840Z,2.78
2023-03-07T14:15:53.681Z,2.60
2023-03-07T14:18:36.104Z,2.10
2023-03-07T14:21:12.766Z,2.65
2023-03-07T14:24:05.620Z,3.35
2023-03-07T14:26:36.891Z,3.10
2023-03-07T14:29:15.944Z,5.13
2023-03-07T14:31:46.059Z,3.85
2023-03-07T14:34:18.993Z,2.10
2023-03-07T14:36:50.450Z,1.50
2023-03-07T14:39:19.067Z,1.92
2023-03-07T14:41:56.787Z,3.15
2023-03-07T14:44:42.894Z,2.30
2023-03-07T14:47:29.198Z,1.90
2023-03-07T14:50:06.055Z,2.53
2023-03-07T14:52:34.647Z,2.78
2023-03-07T14:55:05.064Z,2.22
2023-03-07T14:57:35.353Z,1.83
2023-03-07T15:00:06.442Z,2.67
2023-03-07T15:02:35.798Z,1.90
2023-03-07T15:05:04.655Z,6.13
2023-03-07T15:07:37.060Z,1.90
2023-03-07T15:10:05.431Z,5.30
2023-03-07T15:12:33.318Z,6.80
2023-03-07T15:15:04.549Z,2.90
2023-03-07T15:17:43.609Z,2.95
2023-03-07T15:20:20.717Z,10.95
2023-03-07T15:22:48.716Z,2.80
2023-03-07T15:25:22.664Z,9.35
2023-03-07T15:27:59.784Z,15.55
2023-03-07T15:30:30.796Z,8.63
2023-03-07T15:33:16.655Z,11.95
2023-03-07T15:35:44.989Z,3.42
2023-03-07T15:38:18.970Z,13.40
2023-03-07T15:40:47.198Z,34.60
2023-03-07T15:43:25.560Z,4.53
2023-03-07T15:46:04.345Z,3.90
2023-03-07T15:48:48.440Z,4.78
2023-03-07T15:51:18.138Z,16.02
2023-03-07T15:53:54.621Z,4.60
2023-03-07T15:56:25.702Z,5.28
2023-03-07T15:58:56.230Z,13.90
2023-03-07T16:01:26.082Z,4.20
2023-03-07T16:03:57.134Z,3.88
2023-03-07T16:06:33.262Z,4.85
2023-03-07T16:09:02.238Z,3.88
2023-03-07T16:11:30.054Z,4.43
2023-03-07T16:13:58.576Z,4.38
2023-03-07T16:16:29.614Z,4.30
2023-03-07T16:18:59.193Z,4.28
2023-03-07T16:21:27.312Z,5.13
2023-03-07T16:23:55.167Z,5.63
2023-03-07T16:26:25.223Z,5.80
2023-03-07T16:28:54.346Z,6.20
2023-03-07T16:31:22.666Z,8.18
2023-03-07T16:33:50.602Z,4.63
2023-03-07T16:36:19.989Z,4.55
2023-03-07T16:38:48.102Z,4.80
2023-03-07T16:41:18.366Z,5.53
2023-03-07T16:43:47.913Z,3.55
2023-03-07T16:46:18.144Z,6.93
2023-03-07T16:48:46.730Z,4.30
2023-03-07T16:51:17.871Z,3.53
2023-03-07T16:53:47.852Z,3.70
2023-03-07T16:56:23.665Z,5.50
2023-03-07T16:58:52.206Z,8.32
2023-03-07T17:01:20.107Z,6.15
2023-03-07T17:03:48.089Z,4.97
2023-03-07T17:06:17.736Z,3.65
2023-03-07T17:08:47.545Z,3.42
2023-03-07T17:11:20.049Z,3.90
2023-03-07T17:13:49.117Z,4.32
2023-03-07T17:16:18.130Z,2.00
2023-03-07T17:18:46.448Z,3.65
2023-03-07T17:21:15.391Z,4.43
2023-03-07T17:23:44.988Z,4.25
2023-03-07T17:26:19.276Z,4.53
2023-03-07T17:28:47.621Z,2.97
2023-03-07T17:31:15.408Z,5.00
2023-03-07T17:33:43.739Z,5.13
2023-03-07T17:36:12.430Z,3.35
2023-03-07T17:38:40.289Z,5.13
2023-03-07T17:41:08.072Z,5.85
2023-03-07T17:43:37.333Z,3.53
2023-03-07T17:46:09.133Z,4.33
2023-03-07T17:48:37.340Z,3.92
2023-03-07T17:51:09.101Z,4.70
2023-03-07T17:53:37.120Z,4.25
2023-03-07T17:56:09.368Z,5.93
2023-03-07T17:58:38.650Z,4.72
2023-03-07T18:01:08.423Z,4.27
2023-03-07T18:03:36.748Z,3.80
2023-03-07T18:06:04.692Z,4.03
2023-03-07T18:08:32.790Z,5.40
2023-03-07T18:11:04.117Z,6.82
2023-03-07T18:13:31.942Z,5.75
2023-03-07T18:16:01.628Z,8.38
2023-03-07T18:18:32.921Z,4.55
2023-03-07T18:21:02.580Z,5.13
2023-03-07T18:23:30.585Z,3.50
2023-03-07T18:25:59.065Z,7.07
2023-03-07T18:28:27.446Z,7.20
2023-03-07T18:30:59.957Z,11.07
2023-03-07T18:33:29.430Z,13.52
2023-03-07T18:35:57.712Z,18.23
2023-03-07T18:38:26.221Z,16.77
2023-03-07T18:41:04.621Z,23.60
2023-03-07T18:43:32.808Z,18.75
2023-03-07T18:46:00.770Z,13.32
2023-03-07T18:48:29.928Z,14.85
2023-03-07T18:50:59.005Z,14.23
2023-03-07T18:53:27.275Z,12.35
2023-03-07T18:55:55.391Z,8.50
2023-03-07T18:58:23.688Z,21.13
2023-03-07T19:00:51.588Z,11.73
2023-03-07T19:03:19.479Z,13.23
2023-03-07T19:05:50.362Z,14.52
2023-03-07T19:08:18.421Z,24.17
2023-03-07T19:10:46.288Z,18.80
2023-03-07T19:13:14.161Z,10.38
2023-03-07T19:15:43.139Z,9.60
2023-03-07T19:18:12.425Z,8.88
2023-03-07T19:20:40.917Z,9.85
2023-03-07T19:23:10.172Z,8.30
2023-03-07T19:25:37.955Z,10.47
2023-03-07T19:28:05.782Z,11.18
2023-03-07T19:30:35.551Z,10.68
2023-03-07T19:33:03.406Z,14.40
2023-03-07T19:35:31.520Z,13.07
2023-03-07T19:37:59.722Z,17.15
2023-03-07T19:40:29.695Z,20.75
2023-03-07T19:42:57.828Z,11.15
2023-03-07T19:45:26.958Z,9.75
2023-03-07T19:47:54.772Z,14.80
2023-03-07T19:50:22.663Z,12.82
2023-03-07T19:52:50.471Z,10.82
2023-03-07T19:55:18.328Z,10.32
2023-03-07T19:57:47.874Z,6.82
2023-03-07T20:00:16.672Z,5.95
2023-03-07T20:02:44.693Z,7.45
2023-03-07T20:05:12.674Z,6.32
2023-03-07T20:07:40.993Z,5.53
2023-03-07T20:10:09.949Z,5.93
2023-03-07T20:12:37.785Z,4.85
2023-03-07T20:15:08.419Z,5.13
2023-03-07T20:17:36.643Z,4.97
2023-03-07T20:20:07.944Z,5.90
2023-03-07T20:22:35.862Z,11.00
2023-03-07T20:25:03.745Z,13.52
2023-03-07T20:27:31.664Z,21.63
2023-03-07T20:29:59.573Z,79.45
2023-03-07T20:32:28.929Z,23.90
2023-03-07T20:35:03.338Z,26.17
2023-03-07T20:37:32.962Z,14.25
2023-03-07T20:40:02.147Z,11.45
2023-03-07T20:44:58.635Z,10.93
2023-03-07T20:47:28.524Z,7.68
2023-03-07T20:49:56.576Z,7.53
2023-03-07T20:52:25.909Z,5.82
2023-03-07T20:54:53.873Z,6.25
2023-03-07T20:57:21.710Z,6.13
2023-03-07T20:59:50.005Z,9.00
2023-03-07T21:02:17.991Z,7.32
2023-03-07T21:04:49.690Z,8.70
2023-03-07T21:07:17.938Z,7.65
2023-03-07T21:09:50.756Z,8.00
2023-03-07T21:12:18.856Z,9.75
2023-03-07T21:14:46.870Z,13.00
2023-03-07T21:17:14.645Z,10.95
2023-03-07T21:19:42.546Z,15.73
2023-03-07T21:22:11.828Z,10.27
2023-03-07T21:24:40.000Z,7.60
2023-03-07T21:27:07.766Z,6.97
2023-03-07T21:29:35.661Z,7.68
2023-03-07T21:32:03.781Z,8.55
2023-03-07T21:34:31.682Z,7.38
2023-03-07T21:36:59.573Z,7.75
2023-03-07T21:39:28.942Z,7.50
2023-03-07T21:41:56.942Z,8.17
2023-03-07T21:44:25.068Z,8.07
2023-03-07T21:46:52.912Z,9.75
2023-03-07T21:49:21.066Z,8.50
2023-03-07T21:51:48.937Z,9.20
2023-03-07T21:54:16.908Z,8.68
2023-03-07T21:56:46.250Z,8.93
2023-03-07T21:59:14.421Z,8.75
2023-03-07T22:01:42.273Z,8.95
2023-03-07T22:04:10.155Z,9.10
2023-03-07T22:06:38.125Z,9.18
2023-03-07T22:09:06.209Z,8.65
2023-03-07T22:11:34.202Z,9.30
2023-03-07T22:14:03.874Z,9.35
2023-03-07T22:16:31.894Z,10.20
2023-03-07T22:18:59.815Z,9.10
2023-03-07T22:21:28.038Z,9.50
2023-03-07T22:23:58.026Z,9.50
2023-03-07T22:26:26.757Z,8.88
2023-03-07T22:28:55.000Z,9.50
2023-03-07T22:31:25.460Z,9.43
2023-03-07T22:33:53.553Z,9.30
2023-03-07T22:36:22.304Z,8.70
2023-03-07T22:38:55.116Z,7.70
2023-03-07T22:41:24.361Z,9.07
2023-03-07T22:43:53.097Z,8.67
2023-03-07T22:46:21.532Z,8.50
2023-03-07T22:48:54.255Z,9.15
2023-03-07T22:51:22.240Z,9.02
2023-03-07T22:53:50.128Z,10.43
2023-03-07T22:56:20.201Z,8.55
2023-03-07T22:58:48.657Z,9.13
2023-03-07T23:01:20.172Z,7.60
2023-03-07T23:03:49.725Z,9.82
2023-03-07T23:06:19.807Z,8.65
2023-03-07T23:08:49.534Z,7.68
2023-03-07T23:11:19.383Z,8.57
2023-03-07T23:13:47.780Z,7.22
2023-03-07T23:16:17.587Z,7.93
2023-03-07T23:18:46.772Z,7.80
2023-03-07T23:21:16.564Z,9.13
2023-03-07T23:23:46.243Z,8.18
2023-03-07T23:26:18.554Z,8.05
2023-03-07T23:28:46.674Z,8.20
2023-03-07T23:31:18.768Z,8.48
2023-03-07T23:33:46.675Z,10.40
2023-03-07T23:36:14.475Z,8.82
2023-03-07T23:38:42.576Z,9.25
2023-03-07T23:41:11.916Z,8.85
2023-03-07T23:43:40.230Z,9.30
2023-03-07T23:46:08.231Z,10.35
2023-03-07T23:48:36.132Z,9.90
2023-03-07T23:51:03.963Z,9.43
2023-03-07T23:53:31.845Z,10.52
2023-03-07T23:55:59.745Z,10.07
2023-03-07T23:58:28.977Z,9.82
